sensor_id;sensor_type;location;lat;lon;timestamp;P1;durP1;ratioP1;P2;durP2;ratioP2
25567;SDS011;13455;51.480;7.594;2023-09-18T00:00:54;8.23;;;4.30;;
25567;SDS011;13455;51.480;7.594;2023-09-18T00:03:21;10.27;;;4.53;;
25567;SDS011;13455;51.480;7.594;2023-09-18T00:05:49;9.63;;;4.60;;
25567;SDS011;13455;51.480;7.594;2023-09-18T00:08:16;9.50;;;4.60;;
25567;SDS011;13455;51.480;7.594;2023-09-18T00:10:42;11.23;;;4.80;;
25567;SDS011;13455;51.480;7.594;2023-09-18T00:13:12;7.13;;;4.50;;
25567;SDS011;13455;51.480;7.594;2023-09-18T00:15:38;9.60;;;4.40;;
25567;SDS011;13455;51.480;7.594;2023-09-18T00:18:06;10.55;;;4.78;;
25567;SDS011;13455;51.480;7.594;2023-09-18T00:20:33;8.93;;;4.45;;
25567;SDS011;13455;51.480;7.594;2023-09-18T00:23:00;11.02;;;4.78;;
25567;SDS011;13455;51.480;7.594;2023-09-18T00:25:26;10.85;;;4.57;;
25567;SDS011;13455;51.480;7.594;2023-09-18T00:27:52;9.77;;;4.93;;
25567;SDS011;13455;51.480;7.594;2023-09-18T00:30:18;11.00;;;4.55;;
25567;SDS011;13455;51.480;7.594;2023-09-18T00:32:44;10.75;;;4.60;;
25567;SDS011;13455;51.480;7.594;2023-09-18T00:35:12;8.68;;;4.55;;
25567;SDS011;13455;51.480;7.594;2023-09-18T00:37:38;9.77;;;4.90;;
25567;SDS011;13455;51.480;7.594;2023-09-18T00:40:05;9.98;;;4.45;;
25567;SDS011;13455;51.480;7.594;2023-09-18T00:42:31;10.33;;;4.60;;
25567;SDS011;13455;51.480;7.594;2023-09-18T00:44:57;10.17;;;4.90;;
25567;SDS011;13455;51.480;7.594;2023-09-18T00:47:23;11.93;;;4.97;;
25567;SDS011;13455;51.480;7.594;2023-09-18T00:49:50;10.05;;;4.80;;
25567;SDS011;13455;51.480;7.594;2023-09-18T00:52:17;9.85;;;4.65;;
25567;SDS011;13455;51.480;7.594;2023-09-18T00:54:44;9.23;;;4.53;;
25567;SDS011;13455;51.480;7.594;2023-09-18T00:57:10;12.25;;;5.05;;
25567;SDS011;13455;51.480;7.594;2023-09-18T00:59:37;9.18;;;4.90;;
25567;SDS011;13455;51.480;7.594;2023-09-18T01:02:03;10.05;;;4.70;;
25567;SDS011;13455;51.480;7.594;2023-09-18T01:04:30;9.40;;;4.70;;
25567;SDS011;13455;51.480;7.594;2023-09-18T01:06:57;10.52;;;4.60;;
25567;SDS011;13455;51.480;7.594;2023-09-18T01:09:24;10.20;;;4.57;;
25567;SDS011;13455;51.480;7.594;2023-09-18T01:14:28;8.57;;;4.63;;
25567;SDS011;13455;51.480;7.594;2023-09-18T01:16:59;10.82;;;4.75;;
25567;SDS011;13455;51.480;7.594;2023-09-18T01:19:35;10.27;;;4.90;;
25567;SDS011;13455;51.480;7.594;2023-09-18T01:22:03;10.85;;;4.78;;
25567;SDS011;13455;51.480;7.594;2023-09-18T01:24:29;11.45;;;4.88;;
25567;SDS011;13455;51.480;7.594;2023-09-18T01:26:55;9.63;;;4.47;;
25567;SDS011;13455;51.480;7.594;2023-09-18T01:29:21;11.23;;;4.80;;
25567;SDS011;13455;51.480;7.594;2023-09-18T01:31:47;10.70;;;4.72;;
25567;SDS011;13455;51.480;7.594;2023-09-18T01:34:14;10.80;;;4.85;;
25567;SDS011;13455;51.480;7.594;2023-09-18T01:36:41;10.15;;;4.50;;
25567;SDS011;13455;51.480;7.594;2023-09-18T01:39:09;9.20;;;4.60;;
25567;SDS011;13455;51.480;7.594;2023-09-18T01:41:36;12.20;;;4.85;;
25567;SDS011;13455;51.480;7.594;2023-09-18T01:44:03;10.90;;;4.43;;
25567;SDS011;13455;51.480;7.594;2023-09-18T01:46:29;11.70;;;4.80;;
25567;SDS011;13455;51.480;7.594;2023-09-18T01:48:58;8.27;;;4.30;;
25567;SDS011;13455;51.480;7.594;2023-09-18T01:51:24;8.38;;;4.40;;
25567;SDS011;13455;51.480;7.594;2023-09-18T01:53:50;9.60;;;4.50;;
25567;SDS011;13455;51.480;7.594;2023-09-18T01:56:17;10.13;;;4.50;;
25567;SDS011;13455;51.480;7.594;2023-09-18T01:58:42;11.80;;;4.90;;
25567;SDS011;13455;51.480;7.594;2023-09-18T02:01:08;9.10;;;4.40;;
25567;SDS011;13455;51.480;7.594;2023-09-18T02:03:33;9.47;;;4.40;;
25567;SDS011;13455;51.480;7.594;2023-09-18T02:05:59;9.50;;;4.67;;
25567;SDS011;13455;51.480;7.594;2023-09-18T02:08:25;12.47;;;4.83;;
25567;SDS011;13455;51.480;7.594;2023-09-18T02:10:51;8.93;;;4.55;;
25567;SDS011;13455;51.480;7.594;2023-09-18T02:13:16;9.47;;;4.33;;
25567;SDS011;13455;51.480;7.594;2023-09-18T02:15:43;9.23;;;4.60;;
25567;SDS011;13455;51.480;7.594;2023-09-18T02:18:09;8.73;;;4.80;;
25567;SDS011;13455;51.480;7.594;2023-09-18T02:20:41;11.23;;;4.55;;
25567;SDS011;13455;51.480;7.594;2023-09-18T02:23:07;8.65;;;4.28;;
25567;SDS011;13455;51.480;7.594;2023-09-18T02:25:33;9.02;;;4.50;;
25567;SDS011;13455;51.480;7.594;2023-09-18T02:27:58;10.57;;;4.80;;
25567;SDS011;13455;51.480;7.594;2023-09-18T02:30:24;9.87;;;4.40;;
25567;SDS011;13455;51.480;7.594;2023-09-18T02:32:50;9.32;;;4.35;;
25567;SDS011;13455;51.480;7.594;2023-09-18T02:35:15;9.07;;;4.53;;
25567;SDS011;13455;51.480;7.594;2023-09-18T02:37:41;11.13;;;4.40;;
25567;SDS011;13455;51.480;7.594;2023-09-18T02:40:07;8.30;;;4.10;;
25567;SDS011;13455;51.480;7.594;2023-09-18T02:42:33;7.70;;;4.22;;
25567;SDS011;13455;51.480;7.594;2023-09-18T02:44:58;8.77;;;4.07;;
25567;SDS011;13455;51.480;7.594;2023-09-18T02:47:24;8.23;;;4.10;;
25567;SDS011;13455;51.480;7.594;2023-09-18T02:49:50;8.13;;;3.97;;
25567;SDS011;13455;51.480;7.594;2023-09-18T02:52:15;8.27;;;4.00;;
25567;SDS011;13455;51.480;7.594;2023-09-18T02:54:41;7.23;;;4.10;;
25567;SDS011;13455;51.480;7.594;2023-09-18T02:57:07;7.35;;;3.88;;
25567;SDS011;13455;51.480;7.594;2023-09-18T02:59:32;9.40;;;4.07;;
25567;SDS011;13455;51.480;7.594;2023-09-18T03:01:59;7.20;;;3.90;;
25567;SDS011;13455;51.480;7.594;2023-09-18T03:04:24;10.07;;;3.90;;
25567;SDS011;13455;51.480;7.594;2023-09-18T03:06:50;8.37;;;3.90;;
25567;SDS011;13455;51.480;7.594;2023-09-18T03:09:15;8.25;;;3.55;;
25567;SDS011;13455;51.480;7.594;2023-09-18T03:11:41;6.95;;;3.70;;
25567;SDS011;13455;51.480;7.594;2023-09-18T03:14:08;6.85;;;3.58;;
25567;SDS011;13455;51.480;7.594;2023-09-18T03:16:34;8.57;;;3.73;;
25567;SDS011;13455;51.480;7.594;2023-09-18T03:19:00;8.13;;;3.40;;
25567;SDS011;13455;51.480;7.594;2023-09-18T03:21:25;7.15;;;3.10;;
25567;SDS011;13455;51.480;7.594;2023-09-18T03:23:51;6.28;;;3.10;;
25567;SDS011;13455;51.480;7.594;2023-09-18T03:26:17;12.40;;;3.50;;
25567;SDS011;13455;51.480;7.594;2023-09-18T03:28:42;6.43;;;3.22;;
25567;SDS011;13455;51.480;7.594;2023-09-18T03:31:08;7.07;;;3.50;;
25567;SDS011;13455;51.480;7.594;2023-09-18T03:33:34;7.07;;;3.50;;
25567;SDS011;13455;51.480;7.594;2023-09-18T03:35:59;7.78;;;3.30;;
25567;SDS011;13455;51.480;7.594;2023-09-18T03:38:25;6.77;;;3.30;;
25567;SDS011;13455;51.480;7.594;2023-09-18T03:40:50;7.95;;;3.45;;
25567;SDS011;13455;51.480;7.594;2023-09-18T03:43:16;7.50;;;3.35;;
25567;SDS011;13455;51.480;7.594;2023-09-18T03:45:42;9.32;;;3.53;;
25567;SDS011;13455;51.480;7.594;2023-09-18T03:48:08;13.90;;;3.80;;
25567;SDS011;13455;51.480;7.594;2023-09-18T03:50:34;8.70;;;3.17;;
25567;SDS011;13455;51.480;7.594;2023-09-18T03:53:00;10.05;;;3.22;;
25567;SDS011;13455;51.480;7.594;2023-09-18T03:55:25;8.13;;;3.30;;
25567;SDS011;13455;51.480;7.594;2023-09-18T03:57:51;8.30;;;3.00;;
25567;SDS011;13455;51.480;7.594;2023-09-18T04:00:17;10.77;;;3.33;;
25567;SDS011;13455;51.480;7.594;2023-09-18T04:02:43;8.60;;;3.20;;
25567;SDS011;13455;51.480;7.594;2023-09-18T04:05:08;10.35;;;3.10;;
25567;SDS011;13455;51.480;7.594;2023-09-18T04:07:34;11.57;;;3.20;;
25567;SDS011;13455;51.480;7.594;2023-09-18T04:10:00;10.23;;;3.40;;
25567;SDS011;13455;51.480;7.594;2023-09-18T04:12:26;9.40;;;3.15;;
25567;SDS011;13455;51.480;7.594;2023-09-18T04:14:51;9.90;;;3.20;;
25567;SDS011;13455;51.480;7.594;2023-09-18T04:17:17;9.97;;;2.90;;
25567;SDS011;13455;51.480;7.594;2023-09-18T04:19:43;9.00;;;3.00;;
25567;SDS011;13455;51.480;7.594;2023-09-18T04:22:09;8.68;;;3.13;;
25567;SDS011;13455;51.480;7.594;2023-09-18T04:24:35;8.93;;;2.90;;
25567;SDS011;13455;51.480;7.594;2023-09-18T04:27:00;9.43;;;3.20;;
25567;SDS011;13455;51.480;7.594;2023-09-18T04:29:26;9.52;;;3.03;;
25567;SDS011;13455;51.480;7.594;2023-09-18T04:31:52;7.75;;;3.15;;
25567;SDS011;13455;51.480;7.594;2023-09-18T04:34:19;10.82;;;2.88;;
25567;SDS011;13455;51.480;7.594;2023-09-18T04:36:45;9.13;;;2.70;;
25567;SDS011;13455;51.480;7.594;2023-09-18T04:39:11;9.98;;;2.85;;
25567;SDS011;13455;51.480;7.594;2023-09-18T04:41:36;11.10;;;2.60;;
25567;SDS011;13455;51.480;7.594;2023-09-18T04:44:02;9.63;;;2.73;;
25567;SDS011;13455;51.480;7.594;2023-09-18T04:46:30;10.27;;;2.72;;
25567;SDS011;13455;51.480;7.594;2023-09-18T04:48:55;10.43;;;3.10;;
25567;SDS011;13455;51.480;7.594;2023-09-18T04:51:21;17.33;;;3.30;;
25567;SDS011;13455;51.480;7.594;2023-09-18T04:53:47;13.00;;;3.00;;
25567;SDS011;13455;51.480;7.594;2023-09-18T04:56:12;16.83;;;3.33;;
25567;SDS011;13455;51.480;7.594;2023-09-18T04:58:38;15.65;;;3.08;;
25567;SDS011;13455;51.480;7.594;2023-09-18T05:01:04;14.77;;;3.40;;
25567;SDS011;13455;51.480;7.594;2023-09-18T05:03:33;12.65;;;3.00;;
25567;SDS011;13455;51.480;7.594;2023-09-18T05:05:59;12.05;;;3.40;;
25567;SDS011;13455;51.480;7.594;2023-09-18T05:08:25;12.30;;;2.90;;
25567;SDS011;13455;51.480;7.594;2023-09-18T05:10:50;19.20;;;3.53;;
25567;SDS011;13455;51.480;7.594;2023-09-18T05:13:16;11.90;;;3.35;;
25567;SDS011;13455;51.480;7.594;2023-09-18T05:15:42;15.93;;;3.43;;
25567;SDS011;13455;51.480;7.594;2023-09-18T05:18:07;15.60;;;3.50;;
25567;SDS011;13455;51.480;7.594;2023-09-18T05:20:33;14.70;;;3.20;;
25567;SDS011;13455;51.480;7.594;2023-09-18T05:23:00;13.20;;;3.28;;
25567;SDS011;13455;51.480;7.594;2023-09-18T05:25:28;9.73;;;2.90;;
25567;SDS011;13455;51.480;7.594;2023-09-18T05:27:57;11.50;;;3.10;;
25567;SDS011;13455;51.480;7.594;2023-09-18T05:30:25;15.40;;;3.58;;
25567;SDS011;13455;51.480;7.594;2023-09-18T05:32:57;13.82;;;3.10;;
25567;SDS011;13455;51.480;7.594;2023-09-18T05:35:33;12.57;;;3.00;;
25567;SDS011;13455;51.480;7.594;2023-09-18T05:38:07;13.80;;;3.00;;
25567;SDS011;13455;51.480;7.594;2023-09-18T05:40:34;13.20;;;3.10;;
25567;SDS011;13455;51.480;7.594;2023-09-18T05:43:00;12.07;;;3.10;;
25567;SDS011;13455;51.480;7.594;2023-09-18T05:45:25;12.80;;;3.40;;
25567;SDS011;13455;51.480;7.594;2023-09-18T05:47:52;10.40;;;2.90;;
25567;SDS011;13455;51.480;7.594;2023-09-18T05:50:18;12.18;;;3.08;;
25567;SDS011;13455;51.480;7.594;2023-09-18T05:52:46;14.10;;;3.10;;
25567;SDS011;13455;51.480;7.594;2023-09-18T05:55:13;12.23;;;3.10;;
25567;SDS011;13455;51.480;7.594;2023-09-18T05:57:40;14.00;;;3.15;;
25567;SDS011;13455;51.480;7.594;2023-09-18T06:00:06;9.67;;;3.20;;
25567;SDS011;13455;51.480;7.594;2023-09-18T06:02:32;10.18;;;3.03;;
25567;SDS011;13455;51.480;7.594;2023-09-18T06:04:59;9.93;;;2.90;;
25567;SDS011;13455;51.480;7.594;2023-09-18T06:07:25;12.02;;;2.80;;
25567;SDS011;13455;51.480;7.594;2023-09-18T06:09:52;10.07;;;2.73;;
25567;SDS011;13455;51.480;7.594;2023-09-18T06:12:18;11.73;;;2.85;;
25567;SDS011;13455;51.480;7.594;2023-09-18T06:14:44;11.40;;;2.60;;
25567;SDS011;13455;51.480;7.594;2023-09-18T06:17:11;9.48;;;2.80;;
25567;SDS011;13455;51.480;7.594;2023-09-18T06:19:37;9.98;;;2.78;;
25567;SDS011;13455;51.480;7.594;2023-09-18T06:22:04;12.13;;;3.20;;
25567;SDS011;13455;51.480;7.594;2023-09-18T06:24:29;12.05;;;3.00;;
25567;SDS011;13455;51.480;7.594;2023-09-18T06:26:55;11.73;;;2.92;;
25567;SDS011;13455;51.480;7.594;2023-09-18T06:29:20;10.17;;;2.70;;
25567;SDS011;13455;51.480;7.594;2023-09-18T06:31:46;11.07;;;2.80;;
25567;SDS011;13455;51.480;7.594;2023-09-18T06:34:12;12.73;;;2.80;;
25567;SDS011;13455;51.480;7.594;2023-09-18T06:36:38;11.40;;;2.43;;
25567;SDS011;13455;51.480;7.594;2023-09-18T06:39:03;11.80;;;2.70;;
25567;SDS011;13455;51.480;7.594;2023-09-18T06:41:29;14.20;;;3.17;;
25567;SDS011;13455;51.480;7.594;2023-09-18T06:43:55;10.37;;;2.83;;
25567;SDS011;13455;51.480;7.594;2023-09-18T06:46:21;9.80;;;2.65;;
25567;SDS011;13455;51.480;7.594;2023-09-18T06:48:47;11.30;;;2.60;;
25567;SDS011;13455;51.480;7.594;2023-09-18T06:51:14;10.77;;;2.75;;
25567;SDS011;13455;51.480;7.594;2023-09-18T06:53:40;9.50;;;2.78;;
25567;SDS011;13455;51.480;7.594;2023-09-18T06:56:05;10.82;;;2.63;;
25567;SDS011;13455;51.480;7.594;2023-09-18T06:58:31;9.90;;;2.30;;
25567;SDS011;13455;51.480;7.594;2023-09-18T07:00:57;11.70;;;2.55;;
25567;SDS011;13455;51.480;7.594;2023-09-18T07:03:22;12.15;;;2.55;;
25567;SDS011;13455;51.480;7.594;2023-09-18T07:05:48;8.80;;;2.45;;
25567;SDS011;13455;51.480;7.594;2023-09-18T07:08:14;7.90;;;2.30;;
25567;SDS011;13455;51.480;7.594;2023-09-18T07:10:44;10.65;;;2.50;;
25567;SDS011;13455;51.480;7.594;2023-09-18T07:13:10;8.80;;;2.30;;
25567;SDS011;13455;51.480;7.594;2023-09-18T07:15:36;11.25;;;2.70;;
25567;SDS011;13455;51.480;7.594;2023-09-18T07:18:02;8.77;;;2.10;;
25567;SDS011;13455;51.480;7.594;2023-09-18T07:20:28;6.32;;;2.13;;
25567;SDS011;13455;51.480;7.594;2023-09-18T07:22:55;10.48;;;2.40;;
25567;SDS011;13455;51.480;7.594;2023-09-18T07:25:21;9.15;;;2.20;;
25567;SDS011;13455;51.480;7.594;2023-09-18T07:27:46;8.90;;;2.60;;
25567;SDS011;13455;51.480;7.594;2023-09-18T07:30:12;8.70;;;2.20;;
25567;SDS011;13455;51.480;7.594;2023-09-18T07:32:44;8.15;;;2.38;;
25567;SDS011;13455;51.480;7.594;2023-09-18T07:35:10;7.75;;;2.22;;
25567;SDS011;13455;51.480;7.594;2023-09-18T07:37:38;11.05;;;2.30;;
25567;SDS011;13455;51.480;7.594;2023-09-18T07:40:05;8.20;;;2.15;;
25567;SDS011;13455;51.480;7.594;2023-09-18T07:42:31;9.85;;;2.17;;
25567;SDS011;13455;51.480;7.594;2023-09-18T07:44:57;7.82;;;2.08;;
25567;SDS011;13455;51.480;7.594;2023-09-18T07:47:23;8.90;;;2.20;;
25567;SDS011;13455;51.480;7.594;2023-09-18T07:49:48;7.63;;;2.00;;
25567;SDS011;13455;51.480;7.594;2023-09-18T07:52:15;6.13;;;1.85;;
25567;SDS011;13455;51.480;7.594;2023-09-18T07:54:41;8.25;;;2.25;;
25567;SDS011;13455;51.480;7.594;2023-09-18T07:57:08;7.93;;;2.03;;
25567;SDS011;13455;51.480;7.594;2023-09-18T07:59:34;9.07;;;2.28;;
25567;SDS011;13455;51.480;7.594;2023-09-18T08:02:01;5.60;;;1.98;;
25567;SDS011;13455;51.480;7.594;2023-09-18T08:04:27;6.53;;;2.00;;
25567;SDS011;13455;51.480;7.594;2023-09-18T08:06:52;8.50;;;2.23;;
25567;SDS011;13455;51.480;7.594;2023-09-18T08:09:18;9.48;;;2.10;;
25567;SDS011;13455;51.480;7.594;2023-09-18T08:11:44;8.50;;;2.10;;
25567;SDS011;13455;51.480;7.594;2023-09-18T08:14:09;8.02;;;2.05;;
25567;SDS011;13455;51.480;7.594;2023-09-18T08:16:37;7.15;;;1.80;;
25567;SDS011;13455;51.480;7.594;2023-09-18T08:19:03;9.65;;;1.90;;
25567;SDS011;13455;51.480;7.594;2023-09-18T08:21:29;8.13;;;2.37;;
25567;SDS011;13455;51.480;7.594;2023-09-18T08:23:54;6.63;;;2.03;;
25567;SDS011;13455;51.480;7.594;2023-09-18T08:26:21;5.95;;;2.05;;
25567;SDS011;13455;51.480;7.594;2023-09-18T08:28:50;6.32;;;1.85;;
25567;SDS011;13455;51.480;7.594;2023-09-18T08:31:16;5.57;;;1.87;;
25567;SDS011;13455;51.480;7.594;2023-09-18T08:33:42;6.32;;;1.80;;
25567;SDS011;13455;51.480;7.594;2023-09-18T08:36:08;6.20;;;1.80;;
25567;SDS011;13455;51.480;7.594;2023-09-18T08:38:34;7.90;;;2.00;;
25567;SDS011;13455;51.480;7.594;2023-09-18T08:41:00;7.28;;;2.00;;
25567;SDS011;13455;51.480;7.594;2023-09-18T08:43:25;6.68;;;2.20;;
25567;SDS011;13455;51.480;7.594;2023-09-18T08:48:23;8.45;;;2.15;;
25567;SDS011;13455;51.480;7.594;2023-09-18T08:50:49;6.70;;;1.90;;
25567;SDS011;13455;51.480;7.594;2023-09-18T08:53:16;6.50;;;1.70;;
25567;SDS011;13455;51.480;7.594;2023-09-18T08:55:42;6.65;;;1.70;;
25567;SDS011;13455;51.480;7.594;2023-09-18T08:58:07;5.90;;;1.90;;
25567;SDS011;13455;51.480;7.594;2023-09-18T09:00:33;6.03;;;1.80;;
25567;SDS011;13455;51.480;7.594;2023-09-18T09:03:02;5.25;;;1.67;;
25567;SDS011;13455;51.480;7.594;2023-09-18T09:05:29;6.50;;;1.77;;
25567;SDS011;13455;51.480;7.594;2023-09-18T09:07:56;5.53;;;1.75;;
25567;SDS011;13455;51.480;7.594;2023-09-18T09:10:22;6.40;;;1.80;;
25567;SDS011;13455;51.480;7.594;2023-09-18T09:15:21;6.60;;;1.90;;
25567;SDS011;13455;51.480;7.594;2023-09-18T09:17:48;6.18;;;1.50;;
25567;SDS011;13455;51.480;7.594;2023-09-18T09:20:14;5.88;;;1.70;;
25567;SDS011;13455;51.480;7.594;2023-09-18T09:22:41;5.80;;;1.73;;
25567;SDS011;13455;51.480;7.594;2023-09-18T09:27:49;5.68;;;1.73;;
25567;SDS011;13455;51.480;7.594;2023-09-18T09:30:21;5.20;;;1.77;;
25567;SDS011;13455;51.480;7.594;2023-09-18T09:32:50;4.78;;;1.42;;
25567;SDS011;13455;51.480;7.594;2023-09-18T09:35:27;6.75;;;1.50;;
25567;SDS011;13455;51.480;7.594;2023-09-18T09:38:00;3.23;;;1.30;;
25567;SDS011;13455;51.480;7.594;2023-09-18T09:40:33;4.80;;;1.50;;
25567;SDS011;13455;51.480;7.594;2023-09-18T09:43:00;4.15;;;1.52;;
25567;SDS011;13455;51.480;7.594;2023-09-18T09:45:31;4.97;;;1.60;;
25567;SDS011;13455;51.480;7.594;2023-09-18T09:48:00;6.85;;;1.70;;
25567;SDS011;13455;51.480;7.594;2023-09-18T09:50:29;6.38;;;1.90;;
25567;SDS011;13455;51.480;7.594;2023-09-18T09:52:55;4.10;;;1.70;;
25567;SDS011;13455;51.480;7.594;2023-09-18T09:55:31;4.30;;;1.60;;
25567;SDS011;13455;51.480;7.594;2023-09-18T09:57:59;7.75;;;1.60;;
25567;SDS011;13455;51.480;7.594;2023-09-18T10:00:28;5.13;;;1.53;;
25567;SDS011;13455;51.480;7.594;2023-09-18T10:03:06;4.80;;;1.48;;
25567;SDS011;13455;51.480;7.594;2023-09-18T10:05:34;5.82;;;1.70;;
25567;SDS011;13455;51.480;7.594;2023-09-18T10:10:36;4.40;;;1.30;;
25567;SDS011;13455;51.480;7.594;2023-09-18T10:13:15;3.83;;;1.40;;
25567;SDS011;13455;51.480;7.594;2023-09-18T10:15:42;5.47;;;1.30;;
25567;SDS011;13455;51.480;7.594;2023-09-18T10:23:46;4.75;;;1.50;;
25567;SDS011;13455;51.480;7.594;2023-09-18T10:26:35;4.30;;;1.60;;
25567;SDS011;13455;51.480;7.594;2023-09-18T10:29:05;4.65;;;1.70;;
25567;SDS011;13455;51.480;7.594;2023-09-18T10:31:33;5.70;;;1.53;;
25567;SDS011;13455;51.480;7.594;2023-09-18T10:34:01;5.23;;;1.63;;
25567;SDS011;13455;51.480;7.594;2023-09-18T10:36:28;4.45;;;1.60;;
25567;SDS011;13455;51.480;7.594;2023-09-18T10:38:55;5.90;;;1.60;;
25567;SDS011;13455;51.480;7.594;2023-09-18T10:41:24;7.00;;;1.85;;
25567;SDS011;13455;51.480;7.594;2023-09-18T10:43:52;4.82;;;1.40;;
25567;SDS011;13455;51.480;7.594;2023-09-18T10:46:19;3.50;;;1.33;;
25567;SDS011;13455;51.480;7.594;2023-09-18T10:48:45;4.00;;;1.30;;
25567;SDS011;13455;51.480;7.594;2023-09-18T10:51:12;4.78;;;1.40;;
25567;SDS011;13455;51.480;7.594;2023-09-18T10:53:39;3.72;;;1.27;;
25567;SDS011;13455;51.480;7.594;2023-09-18T10:56:05;4.47;;;1.20;;
25567;SDS011;13455;51.480;7.594;2023-09-18T10:58:32;4.10;;;1.20;;
25567;SDS011;13455;51.480;7.594;2023-09-18T11:01:01;4.45;;;1.30;;
25567;SDS011;13455;51.480;7.594;2023-09-18T11:03:27;5.00;;;1.30;;
25567;SDS011;13455;51.480;7.594;2023-09-18T11:06:03;3.53;;;1.40;;
25567;SDS011;13455;51.480;7.594;2023-09-18T11:08:44;3.05;;;1.20;;
25567;SDS011;13455;51.480;7.594;2023-09-18T11:11:11;6.20;;;1.40;;
25567;SDS011;13455;51.480;7.594;2023-09-18T11:13:43;4.47;;;1.30;;
25567;SDS011;13455;51.480;7.594;2023-09-18T11:16:14;3.58;;;1.20;;
25567;SDS011;13455;51.480;7.594;2023-09-18T11:21:28;5.82;;;1.30;;
25567;SDS011;13455;51.480;7.594;2023-09-18T11:24:02;4.43;;;1.30;;
25567;SDS011;13455;51.480;7.594;2023-09-18T11:26:32;4.55;;;1.35;;
25567;SDS011;13455;51.480;7.594;2023-09-18T11:29:09;4.03;;;1.30;;
25567;SDS011;13455;51.480;7.594;2023-09-18T11:36:56;5.17;;;1.20;;
25567;SDS011;13455;51.480;7.594;2023-09-18T11:42:10;4.78;;;1.20;;
25567;SDS011;13455;51.480;7.594;2023-09-18T11:44:37;5.00;;;1.50;;
25567;SDS011;13455;51.480;7.594;2023-09-18T11:47:07;4.53;;;1.38;;
25567;SDS011;13455;51.480;7.594;2023-09-18T11:49:37;5.80;;;1.40;;
25567;SDS011;13455;51.480;7.594;2023-09-18T11:52:06;4.28;;;1.33;;
25567;SDS011;13455;51.480;7.594;2023-09-18T11:54:33;3.47;;;1.00;;
25567;SDS011;13455;51.480;7.594;2023-09-18T11:57:04;3.45;;;1.13;;
25567;SDS011;13455;51.480;7.594;2023-09-18T11:59:34;4.57;;;1.10;;
25567;SDS011;13455;51.480;7.594;2023-09-18T12:02:01;2.75;;;1.13;;
25567;SDS011;13455;51.480;7.594;2023-09-18T12:04:31;3.50;;;1.20;;
25567;SDS011;13455;51.480;7.594;2023-09-18T12:06:58;4.10;;;1.10;;
25567;SDS011;13455;51.480;7.594;2023-09-18T12:09:31;5.15;;;1.20;;
25567;SDS011;13455;51.480;7.594;2023-09-18T12:12:00;5.32;;;1.17;;
25567;SDS011;13455;51.480;7.594;2023-09-18T12:14:30;4.57;;;1.20;;
25567;SDS011;13455;51.480;7.594;2023-09-18T12:16:57;5.43;;;1.10;;
25567;SDS011;13455;51.480;7.594;2023-09-18T12:19:28;3.37;;;1.00;;
25567;SDS011;13455;51.480;7.594;2023-09-18T12:21:54;3.72;;;1.00;;
25567;SDS011;13455;51.480;7.594;2023-09-18T12:24:23;4.47;;;1.23;;
25567;SDS011;13455;51.480;7.594;2023-09-18T12:26:50;4.00;;;1.35;;
25567;SDS011;13455;51.480;7.594;2023-09-18T12:29:17;4.00;;;1.30;;
25567;SDS011;13455;51.480;7.594;2023-09-18T12:31:43;3.85;;;1.13;;
25567;SDS011;13455;51.480;7.594;2023-09-18T12:34:16;3.40;;;1.10;;
25567;SDS011;13455;51.480;7.594;2023-09-18T12:36:43;4.20;;;1.17;;
25567;SDS011;13455;51.480;7.594;2023-09-18T12:39:09;2.78;;;1.10;;
25567;SDS011;13455;51.480;7.594;2023-09-18T12:41:35;3.95;;;1.20;;
25567;SDS011;13455;51.480;7.594;2023-09-18T12:44:02;5.25;;;1.20;;
25567;SDS011;13455;51.480;7.594;2023-09-18T12:46:32;2.53;;;1.00;;
25567;SDS011;13455;51.480;7.594;2023-09-18T12:48:58;3.22;;;1.02;;
25567;SDS011;13455;51.480;7.594;2023-09-18T12:51:30;4.90;;;1.10;;
25567;SDS011;13455;51.480;7.594;2023-09-18T12:54:02;4.60;;;1.20;;
25567;SDS011;13455;51.480;7.594;2023-09-18T12:56:31;3.20;;;0.93;;
25567;SDS011;13455;51.480;7.594;2023-09-18T12:58:57;3.63;;;1.00;;
25567;SDS011;13455;51.480;7.594;2023-09-18T13:01:28;3.03;;;1.00;;
25567;SDS011;13455;51.480;7.594;2023-09-18T13:03:54;3.53;;;1.00;;
25567;SDS011;13455;51.480;7.594;2023-09-18T13:06:25;7.00;;;1.05;;
25567;SDS011;13455;51.480;7.594;2023-09-18T13:08:51;4.07;;;1.00;;
25567;SDS011;13455;51.480;7.594;2023-09-18T13:11:18;2.47;;;1.08;;
25567;SDS011;13455;51.480;7.594;2023-09-18T13:13:43;2.17;;;0.95;;
25567;SDS011;13455;51.480;7.594;2023-09-18T13:16:11;4.20;;;1.10;;
25567;SDS011;13455;51.480;7.594;2023-09-18T13:18:38;2.63;;;1.00;;
25567;SDS011;13455;51.480;7.594;2023-09-18T13:21:10;3.72;;;1.02;;
25567;SDS011;13455;51.480;7.594;2023-09-18T13:23:39;2.65;;;0.90;;
25567;SDS011;13455;51.480;7.594;2023-09-18T13:26:06;3.77;;;1.17;;
25567;SDS011;13455;51.480;7.594;2023-09-18T13:28:35;3.13;;;1.10;;
25567;SDS011;13455;51.480;7.594;2023-09-18T13:31:04;2.58;;;1.00;;
25567;SDS011;13455;51.480;7.594;2023-09-18T13:33:31;2.83;;;1.15;;
25567;SDS011;13455;51.480;7.594;2023-09-18T13:35:58;2.40;;;1.10;;
25567;SDS011;13455;51.480;7.594;2023-09-18T13:38:24;4.80;;;1.13;;
25567;SDS011;13455;51.480;7.594;2023-09-18T13:40:51;6.13;;;1.10;;
25567;SDS011;13455;51.480;7.594;2023-09-18T13:43:19;3.45;;;1.10;;
25567;SDS011;13455;51.480;7.594;2023-09-18T13:45:47;4.13;;;1.10;;
25567;SDS011;13455;51.480;7.594;2023-09-18T13:48:13;3.20;;;1.20;;
25567;SDS011;13455;51.480;7.594;2023-09-18T13:50:40;4.68;;;1.27;;
25567;SDS011;13455;51.480;7.594;2023-09-18T13:53:06;3.72;;;1.10;;
25567;SDS011;13455;51.480;7.594;2023-09-18T13:55:32;2.88;;;1.10;;
25567;SDS011;13455;51.480;7.594;2023-09-18T13:57:58;2.80;;;1.10;;
25567;SDS011;13455;51.480;7.594;2023-09-18T14:00:24;2.90;;;1.00;;
25567;SDS011;13455;51.480;7.594;2023-09-18T14:02:51;2.70;;;1.30;;
25567;SDS011;13455;51.480;7.594;2023-09-18T14:05:17;5.05;;;1.20;;
25567;SDS011;13455;51.480;7.594;2023-09-18T14:07:42;3.80;;;1.23;;
25567;SDS011;13455;51.480;7.594;2023-09-18T14:10:08;2.65;;;1.08;;
25567;SDS011;13455;51.480;7.594;2023-09-18T14:12:35;3.55;;;1.20;;
25567;SDS011;13455;51.480;7.594;2023-09-18T14:15:03;4.13;;;1.20;;
25567;SDS011;13455;51.480;7.594;2023-09-18T14:17:32;3.87;;;1.20;;
25567;SDS011;13455;51.480;7.594;2023-09-18T14:19:59;2.30;;;0.98;;
25567;SDS011;13455;51.480;7.594;2023-09-18T14:22:25;3.63;;;1.30;;
25567;SDS011;13455;51.480;7.594;2023-09-18T14:24:51;3.40;;;1.50;;
25567;SDS011;13455;51.480;7.594;2023-09-18T14:27:17;4.65;;;1.10;;
25567;SDS011;13455;51.480;7.594;2023-09-18T14:29:42;4.67;;;1.10;;
25567;SDS011;13455;51.480;7.594;2023-09-18T14:32:10;2.97;;;1.10;;
25567;SDS011;13455;51.480;7.594;2023-09-18T14:34:36;2.13;;;1.02;;
25567;SDS011;13455;51.480;7.594;2023-09-18T14:37:02;3.10;;;1.23;;
25567;SDS011;13455;51.480;7.594;2023-09-18T14:39:32;5.32;;;1.20;;
25567;SDS011;13455;51.480;7.594;2023-09-18T14:41:58;2.45;;;1.00;;
25567;SDS011;13455;51.480;7.594;2023-09-18T14:44:25;3.45;;;1.30;;
25567;SDS011;13455;51.480;7.594;2023-09-18T14:46:52;3.63;;;1.30;;
25567;SDS011;13455;51.480;7.594;2023-09-18T14:49:18;3.25;;;1.10;;
25567;SDS011;13455;51.480;7.594;2023-09-18T14:51:44;4.55;;;1.40;;
25567;SDS011;13455;51.480;7.594;2023-09-18T14:54:11;3.83;;;1.10;;
25567;SDS011;13455;51.480;7.594;2023-09-18T14:56:37;4.25;;;1.35;;
25567;SDS011;13455;51.480;7.594;2023-09-18T14:59:03;6.65;;;1.60;;
25567;SDS011;13455;51.480;7.594;2023-09-18T15:01:31;3.23;;;1.40;;
25567;SDS011;13455;51.480;7.594;2023-09-18T15:03:59;2.90;;;1.30;;
25567;SDS011;13455;51.480;7.594;2023-09-18T15:06:25;3.25;;;1.40;;
25567;SDS011;13455;51.480;7.594;2023-09-18T15:08:52;3.40;;;1.30;;
25567;SDS011;13455;51.480;7.594;2023-09-18T15:11:18;3.47;;;1.30;;